sensor_id;sensor_type;location;lat;lon;timestamp;temperature;humidity
23156;DHT22;11746;50.876;4.246;2023-03-01T00:02:05;2.80;99.90
23156;DHT22;11746;50.876;4.246;2023-03-01T00:04:32;2.80;99.90
23156;DHT22;11746;50.876;4.246;2023-03-01T00:06:58;2.90;99.90
23156;DHT22;11746;50.876;4.246;2023-03-01T00:09:24;2.80;99.90
23156;DHT22;11746;50.876;4.246;2023-03-01T00:11:49;2.70;99.90
23156;DHT22;11746;50.876;4.246;2023-03-01T00:14:16;2.70;99.90
23156;DHT22;11746;50.876;4.246;2023-03-01T00:16:43;2.80;99.90
23156;DHT22;11746;50.876;4.246;2023-03-01T00:19:13;2.70;99.90
23156;DHT22;11746;50.876;4.246;2023-03-01T00:21:40;2.60;99.90
23156;DHT22;11746;50.876;4.246;2023-03-01T00:24:06;2.50;99.90
23156;DHT22;11746;50.876;4.246;2023-03-01T00:26:32;2.50;99.90
23156;DHT22;11746;50.876;4.246;2023-03-01T00:28:59;2.40;99.90
23156;DHT22;11746;50.876;4.246;2023-03-01T00:31:27;2.50;99.90
23156;DHT22;11746;50.876;4.246;2023-03-01T00:34:00;2.60;99.90
23156;DHT22;11746;50.876;4.246;2023-03-01T00:36:29;2.60;99.90
23156;DHT22;11746;50.876;4.246;2023-03-01T00:38:56;2.60;99.90
23156;DHT22;11746;50.876;4.246;2023-03-01T00:41:23;2.70;99.90
23156;DHT22;11746;50.876;4.246;2023-03-01T00:43:49;2.60;99.90
23156;DHT22;11746;50.876;4.246;2023-03-01T00:46:20;2.60;99.90
23156;DHT22;11746;50.876;4.246;2023-03-01T00:48:47;2.60;99.90
23156;DHT22;11746;50.876;4.246;2023-03-01T00:51:26;2.60;99.90
23156;DHT22;11746;50.876;4.246;2023-03-01T00:53:53;2.50;99.90
23156;DHT22;11746;50.876;4.246;2023-03-01T00:56:20;2.60;99.90
23156;DHT22;11746;50.876;4.246;2023-03-01T00:58:46;2.60;99.90
23156;DHT22;11746;50.876;4.246;2023-03-01T01:01:21;2.50;99.90
23156;DHT22;11746;50.876;4.246;2023-03-01T01:03:53;2.50;99.90
23156;DHT22;11746;50.876;4.246;2023-03-01T01:06:25;2.50;99.90
23156;DHT22;11746;50.876;4.246;2023-03-01T01:08:53;2.50;99.90
23156;DHT22;11746;50.876;4.246;2023-03-01T01:11:20;2.40;99.90
23156;DHT22;11746;50.876;4.246;2023-03-01T01:13:47;2.30;99.90
23156;DHT22;11746;50.876;4.246;2023-03-01T01:16:14;2.30;99.90
23156;DHT22;11746;50.876;4.246;2023-03-01T01:18:40;2.20;99.90
23156;DHT22;11746;50.876;4.246;2023-03-01T01:21:09;2.20;99.90
23156;DHT22;11746;50.876;4.246;2023-03-01T01:23:36;2.20;99.90
23156;DHT22;11746;50.876;4.246;2023-03-01T01:26:12;2.20;99.90
23156;DHT22;11746;50.876;4.246;2023-03-01T01:28:39;2.10;99.90
23156;DHT22;11746;50.876;4.246;2023-03-01T01:31:06;2.10;99.90
23156;DHT22;11746;50.876;4.246;2023-03-01T01:33:32;2.10;99.90
23156;DHT22;11746;50.876;4.246;2023-03-01T01:35:58;2.10;99.90
23156;DHT22;11746;50.876;4.246;2023-03-01T01:38:24;2.10;99.90
23156;DHT22;11746;50.876;4.246;2023-03-01T01:40:51;2.10;99.90
23156;DHT22;11746;50.876;4.246;2023-03-01T01:43:29;2.10;99.90
23156;DHT22;11746;50.876;4.246;2023-03-01T01:45:58;2.10;99.90
23156;DHT22;11746;50.876;4.246;2023-03-01T01:48:32;2.10;99.90
23156;DHT22;11746;50.876;4.246;2023-03-01T01:51:11;2.00;99.90
23156;DHT22;11746;50.876;4.246;2023-03-01T01:53:37;1.90;99.90
23156;DHT22;11746;50.876;4.246;2023-03-01T01:56:07;2.00;99.90
23156;DHT22;11746;50.876;4.246;2023-03-01T01:58:34;1.90;99.90
23156;DHT22;11746;50.876;4.246;2023-03-01T02:01:01;1.90;99.90
23156;DHT22;11746;50.876;4.246;2023-03-01T02:03:32;1.90;99.90
23156;DHT22;11746;50.876;4.246;2023-03-01T02:06:24;1.90;99.90
23156;DHT22;11746;50.876;4.246;2023-03-01T02:08:57;1.90;99.90
23156;DHT22;11746;50.876;4.246;2023-03-01T02:11:25;2.00;99.90
23156;DHT22;11746;50.876;4.246;2023-03-01T02:13:51;2.00;99.90
23156;DHT22;11746;50.876;4.246;2023-03-01T02:16:18;2.00;99.90
23156;DHT22;11746;50.876;4.246;2023-03-01T02:18:44;1.90;99.90
23156;DHT22;11746;50.876;4.246;2023-03-01T02:21:17;1.90;99.90
23156;DHT22;11746;50.876;4.246;2023-03-01T02:23:46;1.90;99.90
23156;DHT22;11746;50.876;4.246;2023-03-01T02:26:25;1.90;99.90
23156;DHT22;11746;50.876;4.246;2023-03-01T02:28:53;2.10;99.90
23156;DHT22;11746;50.876;4.246;2023-03-01T02:31:20;2.00;99.90
23156;DHT22;11746;50.876;4.246;2023-03-01T02:34:06;2.00;99.90
23156;DHT22;11746;50.876;4.246;2023-03-01T02:36:39;2.00;99.90
23156;DHT22;11746;50.876;4.246;2023-03-01T02:39:09;2.00;99.90
23156;DHT22;11746;50.876;4.246;2023-03-01T02:41:42;1.90;99.90
23156;DHT22;11746;50.876;4.246;2023-03-01T02:44:08;2.00;99.90
23156;DHT22;11746;50.876;4.246;2023-03-01T02:46:46;2.00;99.90
23156;DHT22;11746;50.876;4.246;2023-03-01T02:49:27;2.00;99.90
23156;DHT22;11746;50.876;4.246;2023-03-01T02:55:08;1.90;99.90
23156;DHT22;11746;50.876;4.246;2023-03-01T02:57:37;1.90;99.90
23156;DHT22;11746;50.876;4.246;2023-03-01T03:00:28;1.70;99.90
23156;DHT22;11746;50.876;4.246;2023-03-01T03:02:54;1.70;99.90
23156;DHT22;11746;50.876;4.246;2023-03-01T03:05:28;1.80;99.90
23156;DHT22;11746;50.876;4.246;2023-03-01T03:07:55;1.80;99.90
23156;DHT22;11746;50.876;4.246;2023-03-01T03:10:23;1.80;99.90
23156;DHT22;11746;50.876;4.246;2023-03-01T03:12:54;1.70;99.90
23156;DHT22;11746;50.876;4.246;2023-03-01T03:15:20;1.70;99.90
23156;DHT22;11746;50.876;4.246;2023-03-01T03:17:47;1.60;99.90
23156;DHT22;11746;50.876;4.246;2023-03-01T03:20:15;1.50;99.90
23156;DHT22;11746;50.876;4.246;2023-03-01T03:22:49;1.50;99.90
23156;DHT22;11746;50.876;4.246;2023-03-01T03:25:16;1.40;99.90
23156;DHT22;11746;50.876;4.246;2023-03-01T03:27:44;1.50;99.90
23156;DHT22;11746;50.876;4.246;2023-03-01T03:30:14;1.50;99.90
23156;DHT22;11746;50.876;4.246;2023-03-01T03:32:40;1.60;99.90
23156;DHT22;11746;50.876;4.246;2023-03-01T03:35:08;1.50;99.90
23156;DHT22;11746;50.876;4.246;2023-03-01T03:37:40;1.60;99.90
23156;DHT22;11746;50.876;4.246;2023-03-01T03:40:25;1.70;99.90
23156;DHT22;11746;50.876;4.246;2023-03-01T03:42:51;1.60;99.90
23156;DHT22;11746;50.876;4.246;2023-03-01T03:45:18;1.50;99.90
23156;DHT22;11746;50.876;4.246;2023-03-01T03:47:44;1.40;99.90
23156;DHT22;11746;50.876;4.246;2023-03-01T03:50:15;1.30;99.90
23156;DHT22;11746;50.876;4.246;2023-03-01T03:52:41;1.20;99.90
23156;DHT22;11746;50.876;4.246;2023-03-01T03:55:08;1.20;99.90
23156;DHT22;11746;50.876;4.246;2023-03-01T03:57:39;1.10;99.90
23156;DHT22;11746;50.876;4.246;2023-03-01T04:00:08;1.10;99.90
23156;DHT22;11746;50.876;4.246;2023-03-01T04:02:45;1.10;99.90
23156;DHT22;11746;50.876;4.246;2023-03-01T04:05:12;1.10;99.90
23156;DHT22;11746;50.876;4.246;2023-03-01T04:07:40;1.00;99.90
23156;DHT22;11746;50.876;4.246;2023-03-01T04:10:12;0.90;99.90
23156;DHT22;11746;50.876;4.246;2023-03-01T04:12:39;0.80;99.90
23156;DHT22;11746;50.876;4.246;2023-03-01T04:15:06;0.80;99.90
23156;DHT22;11746;50.876;4.246;2023-03-01T04:17:46;0.70;99.90
23156;DHT22;11746;50.876;4.246;2023-03-01T04:20:23;0.70;99.90
23156;DHT22;11746;50.876;4.246;2023-03-01T04:22:52;0.70;99.90
23156;DHT22;11746;50.876;4.246;2023-03-01T04:25:19;0.80;99.90
23156;DHT22;11746;50.876;4.246;2023-03-01T04:27:45;0.80;99.90
23156;DHT22;11746;50.876;4.246;2023-03-01T04:30:11;0.80;99.90
23156;DHT22;11746;50.876;4.246;2023-03-01T04:32:37;0.70;99.90
23156;DHT22;11746;50.876;4.246;2023-03-01T04:35:04;0.80;99.90
23156;DHT22;11746;50.876;4.246;2023-03-01T04:37:30;0.80;99.90
23156;DHT22;11746;50.876;4.246;2023-03-01T04:39:56;0.80;99.90
23156;DHT22;11746;50.876;4.246;2023-03-01T04:42:21;0.80;99.90
23156;DHT22;11746;50.876;4.246;2023-03-01T04:44:47;0.80;99.90
23156;DHT22;11746;50.876;4.246;2023-03-01T04:47:17;0.80;99.90
23156;DHT22;11746;50.876;4.246;2023-03-01T04:49:42;0.80;99.90
23156;DHT22;11746;50.876;4.246;2023-03-01T04:52:08;0.80;99.90
23156;DHT22;11746;50.876;4.246;2023-03-01T04:54:35;0.70;99.90
23156;DHT22;11746;50.876;4.246;2023-03-01T04:57:02;0.80;99.90
23156;DHT22;11746;50.876;4.246;2023-03-01T04:59:29;0.60;99.90
23156;DHT22;11746;50.876;4.246;2023-03-01T05:01:56;0.60;99.90
23156;DHT22;11746;50.876;4.246;2023-03-01T05:04:23;0.50;99.90
23156;DHT22;11746;50.876;4.246;2023-03-01T05:06:50;0.30;99.90
23156;DHT22;11746;50.876;4.246;2023-03-01T05:09:16;0.40;99.90
23156;DHT22;11746;50.876;4.246;2023-03-01T05:11:42;0.50;99.90
23156;DHT22;11746;50.876;4.246;2023-03-01T05:14:09;0.60;99.90
23156;DHT22;11746;50.876;4.246;2023-03-01T05:16:35;0.60;99.90
23156;DHT22;11746;50.876;4.246;2023-03-01T05:19:02;0.60;99.90
23156;DHT22;11746;50.876;4.246;2023-03-01T05:21:38;0.60;99.90
23156;DHT22;11746;50.876;4.246;2023-03-01T05:24:24;0.50;99.90
23156;DHT22;11746;50.876;4.246;2023-03-01T05:26:50;0.60;99.90
23156;DHT22;11746;50.876;4.246;2023-03-01T05:29:20;0.50;99.90
23156;DHT22;11746;50.876;4.246;2023-03-01T05:31:54;0.60;99.90
23156;DHT22;11746;50.876;4.246;2023-03-01T05:34:29;0.50;99.90
23156;DHT22;11746;50.876;4.246;2023-03-01T05:36:56;0.50;99.90
23156;DHT22;11746;50.876;4.246;2023-03-01T05:39:24;0.50;99.90
23156;DHT22;11746;50.876;4.246;2023-03-01T05:41:59;0.50;99.90
23156;DHT22;11746;50.876;4.246;2023-03-01T05:44:27;0.50;99.90
23156;DHT22;11746;50.876;4.246;2023-03-01T05:46:53;0.50;99.90
23156;DHT22;11746;50.876;4.246;2023-03-01T05:49:19;0.50;99.90
23156;DHT22;11746;50.876;4.246;2023-03-01T05:51:50;0.50;99.90
23156;DHT22;11746;50.876;4.246;2023-03-01T05:54:17;0.50;99.90
23156;DHT22;11746;50.876;4.246;2023-03-01T05:56:43;0.50;99.90
23156;DHT22;11746;50.876;4.246;2023-03-01T05:59:09;0.50;99.90
23156;DHT22;11746;50.876;4.246;2023-03-01T06:01:36;0.60;99.90
23156;DHT22;11746;50.876;4.246;2023-03-01T06:04:03;0.50;99.90
23156;DHT22;11746;50.876;4.246;2023-03-01T06:06:29;0.50;99.90
23156;DHT22;11746;50.876;4.246;2023-03-01T06:08:55;0.50;99.90
23156;DHT22;11746;50.876;4.246;2023-03-01T06:11:21;0.40;99.90
23156;DHT22;11746;50.876;4.246;2023-03-01T06:13:47;0.40;99.90
23156;DHT22;11746;50.876;4.246;2023-03-01T06:16:14;0.50;99.90
23156;DHT22;11746;50.876;4.246;2023-03-01T06:18:40;0.40;99.90
23156;DHT22;11746;50.876;4.246;2023-03-01T06:21:08;0.50;99.90
23156;DHT22;11746;50.876;4.246;2023-03-01T06:23:34;0.50;99.90
23156;DHT22;11746;50.876;4.246;2023-03-01T06:26:04;0.60;99.90
23156;DHT22;11746;50.876;4.246;2023-03-01T06:28:30;0.50;99.90
23156;DHT22;11746;50.876;4.246;2023-03-01T06:30:56;0.50;99.90
23156;DHT22;11746;50.876;4.246;2023-03-01T06:33:22;0.40;99.90
23156;DHT22;11746;50.876;4.246;2023-03-01T06:35:50;0.40;99.90
23156;DHT22;11746;50.876;4.246;2023-03-01T06:38:16;0.50;99.90
23156;DHT22;11746;50.876;4.246;2023-03-01T06:40:44;0.40;99.90
23156;DHT22;11746;50.876;4.246;2023-03-01T06:43:10;0.50;99.90
23156;DHT22;11746;50.876;4.246;2023-03-01T06:45:37;0.40;99.90
23156;DHT22;11746;50.876;4.246;2023-03-01T06:48:07;0.60;99.90
23156;DHT22;11746;50.876;4.246;2023-03-01T06:50:34;0.50;99.90
23156;DHT22;11746;50.876;4.246;2023-03-01T06:53:01;0.50;99.90
23156;DHT22;11746;50.876;4.246;2023-03-01T06:55:27;0.70;99.90
23156;DHT22;11746;50.876;4.246;2023-03-01T06:57:57;0.70;99.90
23156;DHT22;11746;50.876;4.246;2023-03-01T07:00:24;0.60;99.90
23156;DHT22;11746;50.876;4.246;2023-03-01T07:02:50;0.60;99.90
23156;DHT22;11746;50.876;4.246;2023-03-01T07:05:16;0.70;99.90
23156;DHT22;11746;50.876;4.246;2023-03-01T07:07:42;0.70;99.90
23156;DHT22;11746;50.876;4.246;2023-03-01T07:10:08;0.80;99.90
23156;DHT22;11746;50.876;4.246;2023-03-01T07:12:34;0.80;99.90
23156;DHT22;11746;50.876;4.246;2023-03-01T07:15:00;0.90;99.90
23156;DHT22;11746;50.876;4.246;2023-03-01T07:17:26;0.90;99.90
23156;DHT22;11746;50.876;4.246;2023-03-01T07:19:52;0.90;99.90
23156;DHT22;11746;50.876;4.246;2023-03-01T07:22:18;0.90;99.90
23156;DHT22;11746;50.876;4.246;2023-03-01T07:24:44;1.00;99.90
23156;DHT22;11746;50.876;4.246;2023-03-01T07:27:10;1.00;99.90
23156;DHT22;11746;50.876;4.246;2023-03-01T07:29:36;1.00;99.90
23156;DHT22;11746;50.876;4.246;2023-03-01T07:32:03;1.10;99.90
23156;DHT22;11746;50.876;4.246;2023-03-01T07:34:29;1.10;99.90
23156;DHT22;11746;50.876;4.246;2023-03-01T07:36:55;1.10;99.90
23156;DHT22;11746;50.876;4.246;2023-03-01T07:39:21;1.10;99.90
23156;DHT22;11746;50.876;4.246;2023-03-01T07:41:49;1.10;99.90
23156;DHT22;11746;50.876;4.246;2023-03-01T07:44:15;1.20;99.90
23156;DHT22;11746;50.876;4.246;2023-03-01T07:46:43;1.20;99.90
23156;DHT22;11746;50.876;4.246;2023-03-01T07:49:09;1.30;99.90
23156;DHT22;11746;50.876;4.246;2023-03-01T07:51:35;1.30;99.90
23156;DHT22;11746;50.876;4.246;2023-03-01T07:54:01;1.40;99.90
23156;DHT22;11746;50.876;4.246;2023-03-01T07:56:26;1.40;99.90
23156;DHT22;11746;50.876;4.246;2023-03-01T07:58:53;1.50;99.90
23156;DHT22;11746;50.876;4.246;2023-03-01T08:01:20;1.50;99.90
23156;DHT22;11746;50.876;4.246;2023-03-01T08:03:46;1.50;99.90
23156;DHT22;11746;50.876;4.246;2023-03-01T08:06:14;1.40;99.90
23156;DHT22;11746;50.876;4.246;2023-03-01T08:08:40;1.40;99.90
23156;DHT22;11746;50.876;4.246;2023-03-01T08:11:09;1.30;99.90
23156;DHT22;11746;50.876;4.246;2023-03-01T08:13:35;1.30;99.90
23156;DHT22;11746;50.876;4.246;2023-03-01T08:16:07;1.40;99.90
23156;DHT22;11746;50.876;4.246;2023-03-01T08:18:33;1.50;99.90
23156;DHT22;11746;50.876;4.246;2023-03-01T08:21:07;1.50;99.90
23156;DHT22;11746;50.876;4.246;2023-03-01T08:23:34;1.60;99.90
23156;DHT22;11746;50.876;4.246;2023-03-01T08:26:09;1.50;99.90
23156;DHT22;11746;50.876;4.246;2023-03-01T08:28:35;1.60;99.90
23156;DHT22;11746;50.876;4.246;2023-03-01T08:31:01;1.60;99.90
23156;DHT22;11746;50.876;4.246;2023-03-01T08:33:27;1.70;99.90
23156;DHT22;11746;50.876;4.246;2023-03-01T08:36:02;1.80;99.90
23156;DHT22;11746;50.876;4.246;2023-03-01T08:38:28;1.90;99.90
23156;DHT22;11746;50.876;4.246;2023-03-01T08:40:54;2.00;99.90
23156;DHT22;11746;50.876;4.246;2023-03-01T08:43:20;2.10;99.90
23156;DHT22;11746;50.876;4.246;2023-03-01T08:45:48;2.10;99.90
23156;DHT22;11746;50.876;4.246;2023-03-01T08:48:14;2.20;99.90
23156;DHT22;11746;50.876;4.246;2023-03-01T08:50:42;2.20;99.90
23156;DHT22;11746;50.876;4.246;2023-03-01T08:53:08;2.30;99.90
23156;DHT22;11746;50.876;4.246;2023-03-01T08:55:34;2.40;99.90
23156;DHT22;11746;50.876;4.246;2023-03-01T08:57:59;2.50;99.90
23156;DHT22;11746;50.876;4.246;2023-03-01T09:00:26;2.50;99.90
23156;DHT22;11746;50.876;4.246;2023-03-01T09:02:52;2.60;99.90
23156;DHT22;11746;50.876;4.246;2023-03-01T09:05:17;2.60;99.90
23156;DHT22;11746;50.876;4.246;2023-03-01T09:07:43;2.70;99.90
23156;DHT22;11746;50.876;4.246;2023-03-01T09:10:10;2.80;99.90
23156;DHT22;11746;50.876;4.246;2023-03-01T09:12:36;3.00;99.90
23156;DHT22;11746;50.876;4.246;2023-03-01T09:15:02;2.90;99.90
23156;DHT22;11746;50.876;4.246;2023-03-01T09:17:28;2.90;99.90
23156;DHT22;11746;50.876;4.246;2023-03-01T09:19:54;3.00;99.90
23156;DHT22;11746;50.876;4.246;2023-03-01T09:22:20;2.90;99.90
23156;DHT22;11746;50.876;4.246;2023-03-01T09:24:46;3.00;99.90
23156;DHT22;11746;50.876;4.246;2023-03-01T09:27:12;3.10;99.90
23156;DHT22;11746;50.876;4.246;2023-03-01T09:29:40;3.20;99.90
23156;DHT22;11746;50.876;4.246;2023-03-01T09:32:06;3.30;99.90
23156;DHT22;11746;50.876;4.246;2023-03-01T09:34:35;3.30;99.90
23156;DHT22;11746;50.876;4.246;2023-03-01T09:37:20;3.30;99.90
23156;DHT22;11746;50.876;4.246;2023-03-01T09:39:46;3.50;99.90
23156;DHT22;11746;50.876;4.246;2023-03-01T09:42:13;3.60;99.90
23156;DHT22;11746;50.876;4.246;2023-03-01T09:44:52;3.50;99.90
23156;DHT22;11746;50.876;4.246;2023-03-01T09:47:33;3.60;99.90
23156;DHT22;11746;50.876;4.246;2023-03-01T09:50:12;3.60;99.90
23156;DHT22;11746;50.876;4.246;2023-03-01T09:53:13;3.70;99.90
23156;DHT22;11746;50.876;4.246;2023-03-01T09:55:49;4.00;99.90
23156;DHT22;11746;50.876;4.246;2023-03-01T10:01:02;4.10;99.90
23156;DHT22;11746;50.876;4.246;2023-03-01T10:03:36;4.10;99.90
23156;DHT22;11746;50.876;4.246;2023-03-01T10:08:46;4.30;99.90
23156;DHT22;11746;50.876;4.246;2023-03-01T10:11:28;4.20;99.90
23156;DHT22;11746;50.876;4.246;2023-03-01T10:14:03;4.30;99.90
23156;DHT22;11746;50.876;4.246;2023-03-01T10:16:37;4.40;99.90
23156;DHT22;11746;50.876;4.246;2023-03-01T10:19:08;4.40;99.90
23156;DHT22;11746;50.876;4.246;2023-03-01T10:21:41;4.50;99.90
23156;DHT22;11746;50.876;4.246;2023-03-01T10:24:14;4.60;99.90
23156;DHT22;11746;50.876;4.246;2023-03-01T10:27:04;4.70;99.90
23156;DHT22;11746;50.876;4.246;2023-03-01T10:29:37;4.60;99.90
23156;DHT22;11746;50.876;4.246;2023-03-01T10:32:05;4.60;99.90
23156;DHT22;11746;50.876;4.246;2023-03-01T10:34:35;4.60;99.90
23156;DHT22;11746;50.876;4.246;2023-03-01T10:37:13;4.70;99.90
23156;DHT22;11746;50.876;4.246;2023-03-01T10:39:55;4.80;99.90
23156;DHT22;11746;50.876;4.246;2023-03-01T10:42:30;4.90;99.90
23156;DHT22;11746;50.876;4.246;2023-03-01T10:44:57;4.90;99.90
23156;DHT22;11746;50.876;4.246;2023-03-01T10:47:26;5.10;99.90
23156;DHT22;11746;50.876;4.246;2023-03-01T10:50:03;5.20;99.90
23156;DHT22;11746;50.876;4.246;2023-03-01T10:52:35;5.30;99.90
23156;DHT22;11746;50.876;4.246;2023-03-01T10:55:44;5.50;99.90
23156;DHT22;11746;50.876;4.246;2023-03-01T10:58:19;5.30;99.90
23156;DHT22;11746;50.876;4.246;2023-03-01T11:00:48;5.40;99.90
23156;DHT22;11746;50.876;4.246;2023-03-01T11:03:18;5.50;99.90
23156;DHT22;11746;50.876;4.246;2023-03-01T11:06:03;5.50;99.90
23156;DHT22;11746;50.876;4.246;2023-03-01T11:08:32;5.60;99.90
23156;DHT22;11746;50.876;4.246;2023-03-01T11:14:25;5.70;99.90
23156;DHT22;11746;50.876;4.246;2023-03-01T11:16:39;5.80;99.90
23156;DHT22;11746;50.876;4.246;2023-03-01T11:21:40;6.10;99.90
23156;DHT22;11746;50.876;4.246;2023-03-01T11:24:13;6.10;99.90
23156;DHT22;11746;50.876;4.246;2023-03-01T11:26:47;6.10;99.90
23156;DHT22;11746;50.876;4.246;2023-03-01T11:29:43;6.20;99.90
23156;DHT22;11746;50.876;4.246;2023-03-01T11:32:13;6.20;99.90
23156;DHT22;11746;50.876;4.246;2023-03-01T11:34:59;6.10;99.90
23156;DHT22;11746;50.876;4.246;2023-03-01T11:40:24;6.30;99.90
23156;DHT22;11746;50.876;4.246;2023-03-01T11:50:56;6.50;99.90
23156;DHT22;11746;50.876;4.246;2023-03-01T11:56:20;6.70;99.80
23156;DHT22;11746;50.876;4.246;2023-03-01T11:58:59;6.80;99.90
23156;DHT22;11746;50.876;4.246;2023-03-01T12:10:33;7.10;97.60
23156;DHT22;11746;50.876;4.246;2023-03-01T12:16:32;7.00;98.90
23156;DHT22;11746;50.876;4.246;2023-03-01T12:25:03;7.20;98.80
23156;DHT22;11746;50.876;4.246;2023-03-01T12:30:42;7.60;98.40
23156;DHT22;11746;50.876;4.246;2023-03-01T12:33:38;7.80;98.20
23156;DHT22;11746;50.876;4.246;2023-03-01T12:36:45;7.80;98.20
23156;DHT22;11746;50.876;4.246;2023-03-01T12:50:42;7.90;95.20
23156;DHT22;11746;50.876;4.246;2023-03-01T12:53:24;8.30;94.50
23156;DHT22;11746;50.876;4.246;2023-03-01T12:55:53;8.40;92.70
23156;DHT22;11746;50.876;4.246;2023-03-01T13:01:22;8.60;91.40
23156;DHT22;11746;50.876;4.246;2023-03-01T13:04:16;8.60;91.40
23156;DHT22;11746;50.876;4.246;2023-03-01T13:07:05;8.70;91.40
23156;DHT22;11746;50.876;4.246;2023-03-01T13:10:01;8.70;90.30
23156;DHT22;11746;50.876;4.246;2023-03-01T13:20:31;9.40;89.50
23156;DHT22;11746;50.876;4.246;2023-03-01T13:28:38;9.50;84.20
23156;DHT22;11746;50.876;4.246;2023-03-01T13:31:07;9.70;81.30
23156;DHT22;11746;50.876;4.246;2023-03-01T13:36:06;10.10;79.50
23156;DHT22;11746;50.876;4.246;2023-03-01T13:41:55;10.40;78.10
23156;DHT22;11746;50.876;4.246;2023-03-01T13:44:33;10.30;76.70
23156;DHT22;11746;50.876;4.246;2023-03-01T13:49:49;10.60;77.00
23156;DHT22;11746;50.876;4.246;2023-03-01T13:54:51;11.30;76.30
23156;DHT22;11746;50.876;4.246;2023-03-01T13:57:25;11.60;74.90
23156;DHT22;11746;50.876;4.246;2023-03-01T13:59:51;11.70;72.70
23156;DHT22;11746;50.876;4.246;2023-03-01T14:02:17;11.50;73.20
23156;DHT22;11746;50.876;4.246;2023-03-01T14:04:43;11.90;72.30
23156;DHT22;11746;50.876;4.246;2023-03-01T14:07:20;11.90;69.60
23156;DHT22;11746;50.876;4.246;2023-03-01T14:09:49;11.70;68.90
23156;DHT22;11746;50.876;4.246;2023-03-01T14:12:25;12.00;68.10
23156;DHT22;11746;50.876;4.246;2023-03-01T14:20:37;12.60;67.20
23156;DHT22;11746;50.876;4.246;2023-03-01T14:23:13;13.20;65.90
23156;DHT22;11746;50.876;4.246;2023-03-01T14:25:55;13.90;63.10
23156;DHT22;11746;50.876;4.246;2023-03-01T14:28:30;13.90;61.50
23156;DHT22;11746;50.876;4.246;2023-03-01T14:31:00;14.10;60.80
23156;DHT22;11746;50.876;4.246;2023-03-01T14:33:35;14.40;60.20
23156;DHT22;11746;50.876;4.246;2023-03-01T14:36:08;14.40;59.20
23156;DHT22;11746;50.876;4.246;2023-03-01T14:38:36;14.20;58.50
23156;DHT22;11746;50.876;4.246;2023-03-01T14:41:09;14.30;58.80
23156;DHT22;11746;50.876;4.246;2023-03-01T14:43:49;14.70;58.00
23156;DHT22;11746;50.876;4.246;2023-03-01T14:46:36;14.70;57.40
23156;DHT22;11746;50.876;4.246;2023-03-01T14:49:25;14.90;57.00
23156;DHT22;11746;50.876;4.246;2023-03-01T14:52:16;15.10;56.90
23156;DHT22;11746;50.876;4.246;2023-03-01T14:54:46;14.70;55.90
23156;DHT22;11746;50.876;4.246;2023-03-01T14:57:17;14.70;57.10
23156;DHT22;11746;50.876;4.246;2023-03-01T14:59:43;15.30;55.70
23156;DHT22;11746;50.876;4.246;2023-03-01T15:02:16;15.70;55.10
23156;DHT22;11746;50.876;4.246;2023-03-01T15:04:46;15.40;54.00
23156;DHT22;11746;50.876;4.246;2023-03-01T15:07:13;15.70;55.00
23156;DHT22;11746;50.876;4.246;2023-03-01T15:09:40;15.40;54.90
23156;DHT22;11746;50.876;4.246;2023-03-01T15:12:33;15.80;53.80
23156;DHT22;11746;50.876;4.246;2023-03-01T15:15:02;15.80;54.20
23156;DHT22;11746;50.876;4.246;2023-03-01T15:17:44;15.90;53.70
23156;DHT22;11746;50.876;4.246;2023-03-01T15:20:18;16.70;53.50
23156;DHT22;11746;50.876;4.246;2023-03-01T15:22:47;16.30;53.00
23156;DHT22;11746;50.876;4.246;2023-03-01T15:25:18;16.10;52.90
23156;DHT22;11746;50.876;4.246;2023-03-01T15:27:46;16.10;53.70
23156;DHT22;11746;50.876;4.246;2023-03-01T15:32:48;17.00;51.90
23156;DHT22;11746;50.876;4.246;2023-03-01T15:35:40;17.20;50.60
23156;DHT22;11746;50.876;4.246;2023-03-01T15:38:31;16.80;51.20
23156;DHT22;11746;50.876;4.246;2023-03-01T15:41:02;16.60;51.30
23156;DHT22;11746;50.876;4.246;2023-03-01T15:43:44;16.50;51.60
23156;DHT22;11746;50.876;4.246;2023-03-01T15:46:27;16.60;51.30
23156;DHT22;11746;50.876;4.246;2023-03-01T15:48:57;16.60;51.40
23156;DHT22;11746;50.876;4.246;2023-03-01T15:51:33;16.80;51.00
23156;DHT22;11746;50.876;4.246;2023-03-01T15:54:07;17.00;50.70
23156;DHT22;11746;50.876;4.246;2023-03-01T15:56:39;16.60;50.00
23156;DHT22;11746;50.876;4.246;2023-03-01T15:59:05;16.40;50.00
23156;DHT22;11746;50.876;4.246;2023-03-01T16:01:35;15.70;50.40
23156;DHT22;11746;50.876;4.246;2023-03-01T16:04:02;15.90;51.00
23156;DHT22;11746;50.876;4.246;2023-03-01T16:06:28;15.70;51.20
23156;DHT22;11746;50.876;4.246;2023-03-01T16:08:54;15.80;51.30
23156;DHT22;11746;50.876;4.246;2023-03-01T16:11:20;15.90;51.60
23156;DHT22;11746;50.876;4.246;2023-03-01T16:13:46;15.80;51.60
23156;DHT22;11746;50.876;4.246;2023-03-01T16:16:14;15.40;51.40
23156;DHT22;11746;50.876;4.246;2023-03-01T16:18:43;15.00;52.40
23156;DHT22;11746;50.876;4.246;2023-03-01T16:21:14;14.70;52.60
23156;DHT22;11746;50.876;4.246;2023-03-01T16:23:42;14.40;53.30
23156;DHT22;11746;50.876;4.246;2023-03-01T16:26:09;13.90;53.30
23156;DHT22;11746;50.876;4.246;2023-03-01T16:28:35;13.40;53.70
23156;DHT22;11746;50.876;4.246;2023-03-01T16:31:01;13.30;54.30
23156;DHT22;11746;50.876;4.246;2023-03-01T16:33:27;12.30;55.50
23156;DHT22;11746;50.876;4.246;2023-03-01T16:35:55;11.40;57.00
23156;DHT22;11746;50.876;4.246;2023-03-01T16:38:25;10.80;58.90
23156;DHT22;11746;50.876;4.246;2023-03-01T16:40:52;10.00;59.70
23156;DHT22;11746;50.876;4.246;2023-03-01T16:43:18;9.50;62.70
23156;DHT22;11746;50.876;4.246;2023-03-01T16:45:44;9.10;64.50
23156;DHT22;11746;50.876;4.246;2023-03-01T16:48:12;8.90;63.60
23156;DHT22;11746;50.876;4.246;2023-03-01T16:50:38;8.60;64.80
23156;DHT22;11746;50.876;4.246;2023-03-01T16:53:04;8.40;66.70
23156;DHT22;11746;50.876;4.246;2023-03-01T16:55:31;8.30;68.30
23156;DHT22;11746;50.876;4.246;2023-03-01T16:57:57;8.20;69.10
23156;DHT22;11746;50.876;4.246;2023-03-01T17:00:23;8.10;71.20
23156;DHT22;11746;50.876;4.246;2023-03-01T17:02:49;8.00;71.20
23156;DHT22;11746;50.876;4.246;2023-03-01T17:05:15;7.70;72.50
23156;DHT22;11746;50.876;4.246;2023-03-01T17:07:41;7.80;74.40
23156;DHT22;11746;50.876;4.246;2023-03-01T17:10:09;7.70;75.00
23156;DHT22;11746;50.876;4.246;2023-03-01T17:12:36;7.60;75.80
23156;DHT22;11746;50.876;4.246;2023-03-01T17:15:03;7.50;76.40
23156;DHT22;11746;50.876;4.246;2023-03-01T17:17:29;7.30;78.00
23156;DHT22;11746;50.876;4.246;2023-03-01T17:19:55;7.30;79.00
23156;DHT22;11746;50.876;4.246;2023-03-01T17:22:21;7.30;79.80
23156;DHT22;11746;50.876;4.246;2023-03-01T17:24:47;7.20;80.00
23156;DHT22;11746;50.876;4.246;2023-03-01T17:27:13;7.10;81.80
23156;DHT22;11746;50.876;4.246;2023-03-01T17:29:41;7.00;82.30
23156;DHT22;11746;50.876;4.246;2023-03-01T17:32:07;6.90;83.10
23156;DHT22;11746;50.876;4.246;2023-03-01T17:34:33;6.90;84.50
23156;DHT22;11746;50.876;4.246;2023-03-01T17:36:59;6.90;84.00
23156;DHT22;11746;50.876;4.246;2023-03-01T17:39:26;6.80;85.00